Time;durP1;ratioP1;P1;durP2;ratioP2;P2;SDS_P1;SDS_P2;PMS_P1;PMS_P2;Temp;Humidity;BMP_temperature;BMP_pressure;BME280_temperature;BME280_humidity;BME280_pressure;Samples;Min_cycle;Max_cycle;Signal;HPM_P1;HPM_P2
2022/03/11 00:02:15;;;;;;;1.80;1.50;;;7.70;97.30;;;;;;6235133;23;20190;-93
2022/03/11 00:04:48;;;;;;;2.53;1.40;;;7.70;96.80;;;;;;6236257;23;20602;-93
2022/03/11 00:07:19;;;;;;;2.27;1.30;;;7.80;97.20;;;;;;6234386;23;20183;-92
2022/03/11 00:09:50;;;;;;;2.13;1.20;;;7.70;97.80;;;;;;6232229;23;20176;-89
2022/03/11 00:12:24;;;;;;;1.43;1.30;;;7.70;96.20;;;;;;6230764;23;20176;-92
2022/03/11 00:14:56;;;;;;;3.00;1.50;;;7.60;97.40;;;;;;6227481;23;20168;-93
2022/03/11 00:17:27;;;;;;;1.57;1.37;;;7.60;97.70;;;;;;6231400;23;20176;-93
2022/03/11 00:19:58;;;;;;;2.27;1.40;;;7.50;98.00;;;;;;6234623;23;20169;-92
2022/03/11 00:22:30;;;;;;;1.53;1.30;;;7.50;98.10;;;;;;6233987;23;20157;-93
2022/03/11 00:25:02;;;;;;;4.10;1.63;;;7.50;98.00;;;;;;6232298;23;20184;-92
2022/03/11 00:27:37;;;;;;;2.73;1.30;;;7.50;97.90;;;;;;6211963;23;20227;-92
2022/03/11 00:30:10;;;;;;;2.00;1.40;;;7.50;97.80;;;;;;6239436;23;20196;-92
2022/03/11 00:32:42;;;;;;;3.33;1.40;;;7.60;97.80;;;;;;6214998;23;20187;-93
2022/03/11 00:35:15;;;;;;;1.93;1.40;;;7.60;99.00;;;;;;6238017;23;20194;-93
2022/03/11 00:37:47;;;;;;;2.63;1.30;;;7.60;99.90;;;;;;6211154;23;20164;-92
2022/03/11 00:40:19;;;;;;;2.13;1.20;;;7.60;98.90;;;;;;6234732;23;20180;-92
2022/03/11 00:42:52;;;;;;;2.57;1.73;;;7.70;98.30;;;;;;6234152;23;20193;-92
2022/03/11 00:45:23;;;;;;;2.33;1.90;;;7.70;99.00;;;;;;6233326;23;20503;-93
2022/03/11 00:47:55;;;;;;;2.73;1.37;;;7.70;99.90;;;;;;6233143;23;20267;-91
2022/03/11 00:50:26;;;;;;;4.40;1.57;;;7.60;98.20;;;;;;6212312;23;20256;-92
2022/03/11 00:52:57;;;;;;;3.70;1.57;;;7.70;97.30;;;;;;6242257;23;20174;-93
2022/03/11 00:55:28;;;;;;;5.60;1.77;;;7.60;98.10;;;;;;6242276;23;20203;-92
2022/03/11 00:58:01;;;;;;;1.77;1.43;;;7.60;97.10;;;;;;6242826;23;20157;-91
2022/03/11 01:00:35;;;;;;;1.80;1.20;;;7.60;97.40;;;;;;6242912;23;20155;-92
2022/03/11 01:03:07;;;;;;;5.53;1.53;;;7.70;98.00;;;;;;6242619;23;20163;-92
2022/03/11 01:05:39;;;;;;;3.27;1.40;;;7.70;97.00;;;;;;6239233;22;20230;-92
2022/03/11 01:08:09;;;;;;;5.10;1.20;;;7.80;96.80;;;;;;6242411;23;20206;-90
2022/03/11 01:10:56;;;;;;;4.70;1.70;;;7.70;95.80;;;;;;6242039;23;20187;-93
2022/03/11 01:13:29;;;;;;;3.87;1.67;;;7.70;96.50;;;;;;6241941;23;20172;-91
2022/03/11 01:16:00;;;;;;;1.33;1.23;;;7.60;98.90;;;;;;6242177;23;20160;-92
2022/03/11 01:18:32;;;;;;;2.10;1.30;;;7.50;99.20;;;;;;6241805;23;20176;-93
2022/03/11 01:21:04;;;;;;;5.57;1.90;;;7.50;98.70;;;;;;6241805;23;20206;-92
2022/03/11 01:23:39;;;;;;;2.27;1.73;;;7.50;97.50;;;;;;6190587;23;20242;-93
2022/03/11 01:26:12;;;;;;;2.73;1.73;;;7.40;97.50;;;;;;6218035;23;20175;-93
2022/03/11 01:28:45;;;;;;;2.00;1.37;;;7.40;98.20;;;;;;6241573;23;20180;-93
2022/03/11 01:31:17;;;;;;;5.40;1.43;;;7.40;97.60;;;;;;6241062;23;20227;-90
2022/03/11 01:33:49;;;;;;;3.73;1.57;;;7.40;98.80;;;;;;6241893;23;20216;-93
2022/03/11 01:36:20;;;;;;;2.87;1.30;;;7.30;99.60;;;;;;6242073;23;20236;-94
2022/03/11 01:38:53;;;;;;;2.23;1.40;;;7.30;99.90;;;;;;6240552;23;20194;-93
2022/03/11 01:41:25;;;;;;;2.93;1.20;;;7.20;99.90;;;;;;6242122;23;20227;-92
2022/03/11 01:44:02;;;;;;;1.43;1.20;;;7.10;99.90;;;;;;6242253;23;20186;-93
2022/03/11 01:46:36;;;;;;;1.63;1.30;;;7.10;99.90;;;;;;6240931;23;20178;-92
2022/03/11 01:49:08;;;;;;;2.73;1.37;;;7.00;99.90;;;;;;6239836;23;20160;-93
2022/03/11 01:51:41;;;;;;;4.23;1.70;;;7.00;99.90;;;;;;6239925;23;20203;-93
2022/03/11 01:54:13;;;;;;;2.57;1.20;;;6.90;99.90;;;;;;6241281;23;20160;-91
2022/03/11 01:56:47;;;;;;;3.73;1.60;;;6.80;99.90;;;;;;6243547;23;20179;-93
2022/03/11 01:59:22;;;;;;;3.03;1.50;;;6.70;99.90;;;;;;6243121;23;20218;-93
2022/03/11 02:01:53;;;;;;;1.50;1.33;;;6.70;99.90;;;;;;6243013;23;20164;-92
2022/03/11 02:04:25;;;;;;;1.53;1.40;;;6.60;99.90;;;;;;6241881;23;20160;-91
2022/03/11 02:06:57;;;;;;;2.93;1.20;;;6.50;99.90;;;;;;6191451;23;20192;-96
2022/03/11 02:09:29;;;;;;;2.57;1.43;;;6.50;99.90;;;;;;6241332;23;20169;-92
2022/03/11 02:12:00;;;;;;;2.93;1.40;;;6.40;99.90;;;;;;6239966;23;20229;-93
2022/03/11 02:14:35;;;;;;;3.33;1.30;;;6.50;99.90;;;;;;6241864;23;20168;-93
2022/03/11 02:17:06;;;;;;;6.90;1.50;;;6.40;99.90;;;;;;6238679;23;20160;-93
2022/03/11 02:19:38;;;;;;;5.43;1.60;;;6.40;99.90;;;;;;6240698;23;20188;-91
2022/03/11 02:22:10;;;;;;;4.97;1.57;;;6.30;99.90;;;;;;6240005;23;20180;-93
2022/03/11 02:24:44;;;;;;;2.73;1.53;;;6.30;99.90;;;;;;6239113;23;20188;-92
2022/03/11 02:27:15;;;;;;;2.83;1.50;;;6.30;99.90;;;;;;6239021;23;20176;-92
2022/03/11 02:29:46;;;;;;;3.47;1.40;;;6.30;99.90;;;;;;6238947;23;20234;-93
2022/03/11 02:32:18;;;;;;;2.30;1.30;;;6.30;99.90;;;;;;6240273;23;20192;-93
2022/03/11 02:34:49;;;;;;;2.67;1.67;;;6.30;99.90;;;;;;6229218;23;20169;-92
2022/03/11 02:37:20;;;;;;;2.23;1.60;;;6.30;99.90;;;;;;6229677;23;20191;-92
2022/03/11 02:39:55;;;;;;;2.73;1.53;;;6.30;99.90;;;;;;6226868;23;20626;-91
2022/03/11 02:42:26;;;;;;;2.67;1.40;;;6.20;99.90;;;;;;6224956;23;20179;-92
2022/03/11 02:45:00;;;;;;;4.77;1.40;;;6.20;99.90;;;;;;6227272;23;20173;-93
2022/03/11 02:47:31;;;;;;;2.27;1.50;;;6.20;99.90;;;;;;6226417;23;20203;-92
2022/03/11 02:50:02;;;;;;;2.57;1.30;;;6.20;99.90;;;;;;6227072;23;20244;-91
2022/03/11 02:52:33;;;;;;;3.53;1.80;;;6.20;99.90;;;;;;6231597;23;20196;-91
2022/03/11 02:55:08;;;;;;;2.33;1.33;;;6.20;99.90;;;;;;6226431;23;20222;-93
2022/03/11 02:57:39;;;;;;;2.27;1.40;;;6.10;99.90;;;;;;6223989;23;20180;-92
2022/03/11 03:00:11;;;;;;;2.03;1.70;;;6.10;99.90;;;;;;6225512;23;20180;-93
2022/03/11 03:02:42;;;;;;;1.83;1.30;;;6.10;99.90;;;;;;6225360;23;20224;-91
2022/03/11 03:05:13;;;;;;;2.27;1.67;;;6.00;99.90;;;;;;6231026;23;20184;-92
2022/03/11 03:07:44;;;;;;;12.57;2.10;;;6.00;99.90;;;;;;6235025;23;20182;-91
2022/03/11 03:10:17;;;;;;;3.10;2.50;;;6.00;99.90;;;;;;6236811;23;20195;-91
2022/03/11 03:12:49;;;;;;;5.07;2.67;;;6.00;99.90;;;;;;6238698;23;20194;-90
2022/03/11 03:15:20;;;;;;;3.40;2.30;;;6.00;99.90;;;;;;6229884;23;20215;-92
2022/03/11 03:17:52;;;;;;;3.63;2.00;;;6.00;99.90;;;;;;6240810;23;20232;-90
2022/03/11 03:20:23;;;;;;;3.20;2.17;;;6.00;99.90;;;;;;6214884;23;20268;-91
2022/03/11 03:22:54;;;;;;;4.17;2.13;;;6.00;99.90;;;;;;6239294;23;20198;-92
2022/03/11 03:25:27;;;;;;;2.67;1.93;;;6.00;99.90;;;;;;6242270;23;20170;-91
2022/03/11 03:27:59;;;;;;;6.40;2.30;;;6.00;99.90;;;;;;6239147;23;20212;-92
2022/03/11 03:30:30;;;;;;;3.50;2.53;;;6.00;99.90;;;;;;6235035;23;20180;-90
2022/03/11 03:33:03;;;;;;;3.23;2.60;;;6.00;99.90;;;;;;6233886;23;20214;-93
2022/03/11 03:35:34;;;;;;;3.73;3.20;;;5.90;99.90;;;;;;6238482;23;20180;-92
2022/03/11 03:38:09;;;;;;;3.60;2.33;;;5.90;99.90;;;;;;6240492;23;20199;-92
2022/03/11 03:40:43;;;;;;;4.40;2.03;;;5.80;99.90;;;;;;6242680;23;20156;-92
2022/03/11 03:43:14;;;;;;;2.80;2.13;;;5.80;99.90;;;;;;6242311;23;20164;-92
2022/03/11 03:45:45;;;;;;;3.23;2.20;;;5.80;99.90;;;;;;6214055;23;20212;-87
2022/03/11 03:48:17;;;;;;;2.60;1.80;;;5.70;99.90;;;;;;6241722;23;20168;-92
2022/03/11 03:50:49;;;;;;;7.47;5.80;;;5.70;99.90;;;;;;6239303;23;20177;-92
2022/03/11 03:53:21;;;;;;;5.40;3.50;;;5.70;99.90;;;;;;6240372;23;20572;-92
2022/03/11 03:55:55;;;;;;;6.30;3.90;;;5.70;99.90;;;;;;6236025;23;20184;-91
2022/03/11 03:58:27;;;;;;;4.10;2.87;;;5.70;99.90;;;;;;6232763;23;20160;-93
2022/03/11 04:00:59;;;;;;;3.60;2.40;;;5.70;99.90;;;;;;6238516;23;20214;-93
2022/03/11 04:03:31;;;;;;;4.47;2.20;;;5.70;99.90;;;;;;6234600;23;20181;-93
2022/03/11 04:11:23;;;;;;;2.73;1.73;;;5.70;99.90;;;;;;6238306;23;20238;-90
2022/03/11 04:13:55;;;;;;;2.93;1.83;;;5.70;99.90;;;;;;6216351;23;20233;-91
2022/03/11 04:16:27;;;;;;;2.30;1.70;;;5.70;99.90;;;;;;6217509;23;20184;-92
2022/03/11 04:19:00;;;;;;;4.10;2.50;;;5.70;99.90;;;;;;6242126;23;20187;-93
2022/03/11 04:21:32;;;;;;;3.27;2.10;;;5.70;99.90;;;;;;6241955;23;20180;-92
2022/03/11 04:26:43;;;;;;;5.90;2.70;;;5.60;99.90;;;;;;6233663;23;20214;-91
2022/03/11 04:29:15;;;;;;;10.10;4.17;;;5.60;99.90;;;;;;6238696;23;20182;-90
2022/03/11 04:31:47;;;;;;;6.00;4.00;;;5.60;99.90;;;;;;6203573;23;20200;-89
2022/03/11 04:34:19;;;;;;;4.23;3.57;;;5.50;99.90;;;;;;6241358;23;20196;-91
2022/03/11 04:39:32;;;;;;;5.63;2.43;;;5.50;99.90;;;;;;6209661;23;20438;-86
2022/03/11 04:42:10;;;;;;;3.03;2.73;;;5.50;99.90;;;;;;6241085;23;20166;-91
2022/03/11 04:44:42;;;;;;;4.27;2.23;;;5.60;99.90;;;;;;6213342;23;20167;-93
2022/03/11 04:47:13;;;;;;;2.07;1.77;;;5.50;99.90;;;;;;6236478;23;20168;-92
2022/03/11 04:49:44;;;;;;;3.80;2.27;;;5.60;99.90;;;;;;6239122;23;20215;-93
2022/03/11 04:52:15;;;;;;;3.27;2.10;;;5.60;99.90;;;;;;6239415;23;20227;-92
2022/03/11 04:54:46;;;;;;;3.40;2.00;;;5.60;99.90;;;;;;6239442;23;20160;-93
2022/03/11 04:57:21;;;;;;;4.00;2.67;;;5.60;99.90;;;;;;6214008;23;20204;-91
2022/03/11 04:59:53;;;;;;;5.37;3.13;;;5.70;99.90;;;;;;6237450;23;20169;-93
2022/03/11 05:02:28;;;;;;;2.60;2.17;;;5.60;99.90;;;;;;6237607;23;20188;-92
2022/03/11 05:05:05;;;;;;;3.93;2.20;;;5.70;99.90;;;;;;6236276;23;20179;-93
2022/03/11 05:07:40;;;;;;;2.93;2.13;;;5.70;99.90;;;;;;6209123;23;20217;-91
2022/03/11 05:10:13;;;;;;;1.83;1.70;;;5.70;99.90;;;;;;6236452;23;20211;-91
2022/03/11 05:12:48;;;;;;;3.27;1.90;;;5.70;99.90;;;;;;6235002;23;20164;-91
2022/03/11 05:15:24;;;;;;;2.67;1.57;;;5.60;99.90;;;;;;6236653;23;20176;-91
2022/03/11 05:17:56;;;;;;;2.30;1.50;;;5.70;99.90;;;;;;6235217;23;20188;-93
2022/03/11 05:20:27;;;;;;;2.77;1.63;;;5.60;99.90;;;;;;6235935;23;20235;-93
2022/03/11 05:22:59;;;;;;;2.37;1.60;;;5.60;99.90;;;;;;6212800;23;20164;-92
2022/03/11 05:25:30;;;;;;;1.93;1.40;;;5.50;99.90;;;;;;6236252;23;20187;-92
2022/03/11 05:28:03;;;;;;;3.20;1.47;;;5.50;99.90;;;;;;6231243;23;20177;-93
2022/03/11 05:30:36;;;;;;;1.77;1.30;;;5.50;99.90;;;;;;6212110;23;20168;-92
2022/03/11 05:38:34;;;;;;;1.70;1.40;;;5.40;99.90;;;;;;6232228;23;20160;-92
2022/03/11 05:41:05;;;;;;;1.43;1.27;;;5.30;99.90;;;;;;6236877;23;20211;-91
2022/03/11 05:43:38;;;;;;;3.13;2.00;;;5.30;99.90;;;;;;6238237;23;20177;-92
2022/03/11 05:46:10;;;;;;;5.13;2.37;;;5.30;99.90;;;;;;6238322;23;20160;-92
2022/03/11 05:48:42;;;;;;;3.37;2.10;;;5.30;99.90;;;;;;6221970;23;20167;-93
2022/03/11 05:51:13;;;;;;;2.10;1.90;;;5.30;99.90;;;;;;6222145;23;20460;-94
2022/03/11 05:53:44;;;;;;;2.33;1.87;;;5.30;99.90;;;;;;6203223;23;20201;-92
2022/03/11 05:56:16;;;;;;;2.97;1.90;;;5.20;99.90;;;;;;6221776;23;20185;-91
2022/03/11 05:58:50;;;;;;;2.40;1.53;;;5.20;99.90;;;;;;6220237;23;20176;-92
2022/03/11 06:01:22;;;;;;;3.93;1.67;;;5.20;99.90;;;;;;6233383;23;20180;-93
2022/03/11 06:03:55;;;;;;;2.70;1.50;;;5.20;99.90;;;;;;6229104;23;20169;-92
2022/03/11 06:06:27;;;;;;;2.43;1.60;;;5.20;99.90;;;;;;6241106;23;20188;-92
2022/03/11 06:08:59;;;;;;;3.43;1.43;;;5.20;99.90;;;;;;6226509;23;20207;-91
2022/03/11 06:11:31;;;;;;;3.90;1.57;;;5.10;99.90;;;;;;6232825;23;20207;-92
2022/03/11 06:14:04;;;;;;;1.60;1.30;;;5.10;99.90;;;;;;6218667;23;20235;-90
2022/03/11 06:16:35;;;;;;;2.53;1.60;;;5.00;99.90;;;;;;6228504;23;20184;-93
2022/03/11 06:19:07;;;;;;;2.03;1.47;;;5.00;99.90;;;;;;6220833;23;20224;-91
2022/03/11 06:21:38;;;;;;;4.70;1.50;;;5.00;99.90;;;;;;6226063;23;20157;-92
2022/03/11 06:24:09;;;;;;;3.50;1.87;;;4.90;99.90;;;;;;6225244;23;20259;-92
2022/03/11 06:26:40;;;;;;;2.10;1.50;;;4.90;99.90;;;;;;6223140;23;20175;-92
2022/03/11 06:29:15;;;;;;;3.13;1.40;;;4.90;99.90;;;;;;6227386;23;20164;-92
2022/03/11 06:31:46;;;;;;;2.60;1.67;;;4.90;99.90;;;;;;6241103;23;20180;-92
2022/03/11 06:34:17;;;;;;;2.47;1.83;;;4.80;99.90;;;;;;6241946;23;20244;-92
2022/03/11 06:36:49;;;;;;;5.03;1.57;;;4.80;99.90;;;;;;6242008;23;20171;-93
2022/03/11 06:39:21;;;;;;;2.17;1.60;;;4.80;99.90;;;;;;6239088;23;20180;-92
2022/03/11 06:41:52;;;;;;;2.80;1.50;;;4.80;99.90;;;;;;6202946;23;21267;-92
2022/03/11 06:44:26;;;;;;;4.90;1.37;;;4.80;99.90;;;;;;6231204;23;20196;-90
2022/03/11 06:46:57;;;;;;;1.83;1.53;;;4.80;99.90;;;;;;6200658;23;20180;-95
2022/03/11 06:49:28;;;;;;;2.47;1.57;;;4.80;99.90;;;;;;6224829;23;20444;-92
2022/03/11 06:54:36;;;;;;;4.07;1.60;;;4.80;99.90;;;;;;6226181;23;20204;-92
2022/03/11 06:57:07;;;;;;;1.63;1.10;;;4.80;99.90;;;;;;6235644;23;20215;-93
2022/03/11 06:59:45;;;;;;;2.60;1.80;;;4.90;99.90;;;;;;6234979;23;20198;-92
2022/03/11 07:02:18;;;;;;;2.13;1.40;;;4.90;99.90;;;;;;6233355;23;20169;-92
2022/03/11 07:04:55;;;;;;;2.10;1.30;;;4.90;99.90;;;;;;6211822;23;20195;-90
2022/03/11 07:07:30;;;;;;;3.97;1.60;;;4.90;99.90;;;;;;6222396;23;20177;-95
2022/03/11 07:10:02;;;;;;;1.73;1.40;;;4.90;99.90;;;;;;6227996;23;20156;-92
2022/03/11 07:12:34;;;;;;;4.30;1.47;;;4.90;99.90;;;;;;6222596;23;20173;-92
2022/03/11 07:15:08;;;;;;;2.37;1.50;;;4.90;99.90;;;;;;6219708;23;20260;-91
2022/03/11 07:17:42;;;;;;;2.90;1.47;;;4.90;99.90;;;;;;6218377;23;20231;-92
2022/03/11 07:20:13;;;;;;;2.23;1.23;;;4.80;99.90;;;;;;6220036;23;20256;-91
2022/03/11 07:22:47;;;;;;;3.03;1.80;;;4.80;99.90;;;;;;6194737;23;20191;-93
2022/03/11 07:25:19;;;;;;;1.83;1.33;;;4.80;99.90;;;;;;6220107;23;20471;-92
2022/03/11 07:27:52;;;;;;;2.27;1.87;;;4.80;99.90;;;;;;6219292;23;20175;-93
2022/03/11 07:30:25;;;;;;;3.30;1.77;;;4.70;99.90;;;;;;6220398;23;20173;-93
2022/03/11 07:32:57;;;;;;;2.07;1.73;;;4.70;99.90;;;;;;6220875;23;20256;-91
2022/03/11 07:35:28;;;;;;;2.87;1.77;;;4.70;99.90;;;;;;6220927;23;20197;-91
2022/03/11 07:38:00;;;;;;;2.13;1.30;;;4.60;99.90;;;;;;6221235;23;20184;-92
2022/03/11 07:40:31;;;;;;;3.63;1.90;;;4.60;99.90;;;;;;6220515;23;20165;-92
2022/03/11 07:43:02;;;;;;;3.87;1.90;;;4.50;99.90;;;;;;6222555;23;20177;-92
2022/03/11 07:45:35;;;;;;;3.40;1.80;;;4.50;99.90;;;;;;6222990;23;20506;-92
2022/03/11 07:48:07;;;;;;;2.40;1.80;;;4.40;99.90;;;;;;6218659;23;20490;-92
2022/03/11 07:50:38;;;;;;;3.67;1.93;;;4.30;99.90;;;;;;6193934;23;20176;-92
2022/03/11 07:53:09;;;;;;;3.63;2.03;;;4.30;99.90;;;;;;6220277;23;20176;-91
2022/03/11 07:55:40;;;;;;;3.67;2.20;;;4.20;99.90;;;;;;6220244;23;20219;-91
2022/03/11 07:58:12;;;;;;;2.63;1.60;;;4.20;99.90;;;;;;6219278;23;20177;-92
2022/03/11 08:00:45;;;;;;;3.77;1.93;;;4.10;99.90;;;;;;6220312;23;20180;-91
2022/03/11 08:03:22;;;;;;;2.97;1.60;;;4.10;99.90;;;;;;6220611;23;20517;-91
2022/03/11 08:05:53;;;;;;;2.90;1.67;;;4.00;99.90;;;;;;6220354;22;20212;-91
2022/03/11 08:08:25;;;;;;;3.87;1.77;;;4.00;99.90;;;;;;6228235;23;20168;-93
2022/03/11 08:10:56;;;;;;;5.70;1.50;;;4.00;99.90;;;;;;6220147;23;20191;-92
2022/03/11 08:13:36;;;;;;;3.03;1.70;;;4.00;99.90;;;;;;6220604;23;20261;-92
2022/03/11 08:16:10;;;;;;;2.10;1.47;;;3.90;99.90;;;;;;6193555;23;20239;-91
2022/03/11 08:18:41;;;;;;;2.37;1.67;;;3.90;99.90;;;;;;6219365;23;20176;-92
2022/03/11 08:21:12;;;;;;;2.27;1.67;;;3.90;99.90;;;;;;6220255;23;20611;-93
2022/03/11 08:23:44;;;;;;;2.70;1.50;;;3.90;99.90;;;;;;6220212;23;20172;-91
2022/03/11 08:26:15;;;;;;;2.93;1.60;;;3.80;99.90;;;;;;6227989;23;20219;-93
2022/03/11 08:28:48;;;;;;;2.87;1.47;;;3.80;99.90;;;;;;6225913;23;20172;-92
2022/03/11 08:31:41;;;;;;;3.23;1.60;;;3.70;99.90;;;;;;6222626;23;20342;-91
2022/03/11 08:34:12;;;;;;;2.87;1.60;;;3.70;99.90;;;;;;6221629;23;20179;-92
2022/03/11 08:36:44;;;;;;;2.73;1.80;;;3.70;99.90;;;;;;6229810;23;20172;-93
2022/03/11 08:39:15;;;;;;;2.77;1.93;;;3.70;99.90;;;;;;6228571;23;20191;-92
2022/03/11 08:41:46;;;;;;;2.50;1.43;;;3.60;99.90;;;;;;6228412;23;20213;-89
2022/03/11 08:44:17;;;;;;;2.20;1.40;;;3.60;99.90;;;;;;6237409;23;20165;-90
2022/03/11 08:46:50;;;;;;;3.03;1.70;;;3.60;99.90;;;;;;6241003;23;20179;-91
2022/03/11 08:49:22;;;;;;;2.80;1.73;;;3.60;99.90;;;;;;6242893;23;20179;-91
2022/03/11 08:51:53;;;;;;;2.70;1.63;;;3.60;99.90;;;;;;6238256;23;20176;-92
2022/03/11 08:54:23;;;;;;;3.47;1.80;;;3.50;99.90;;;;;;6236611;23;20161;-93
2022/03/11 08:56:54;;;;;;;1.97;1.63;;;3.50;99.90;;;;;;6243434;23;20156;-96
2022/03/11 08:59:25;;;;;;;5.00;1.60;;;3.50;99.90;;;;;;6229153;23;20172;-92
2022/03/11 09:01:58;;;;;;;4.00;2.20;;;3.50;99.90;;;;;;6230841;23;20235;-92
2022/03/11 09:04:28;;;;;;;3.10;1.60;;;3.60;99.90;;;;;;6227823;23;20195;-92
2022/03/11 09:07:00;;;;;;;6.67;1.50;;;3.50;99.90;;;;;;6223267;23;20194;-92
2022/03/11 09:09:36;;;;;;;1.73;1.47;;;3.50;99.90;;;;;;6227083;23;20264;-92
2022/03/11 09:12:07;;;;;;;3.00;1.30;;;3.50;99.90;;;;;;6222904;23;20175;-91
2022/03/11 09:14:39;;;;;;;2.20;1.50;;;3.40;99.90;;;;;;6224734;23;20188;-91
2022/03/11 09:17:12;;;;;;;3.63;1.60;;;3.40;99.90;;;;;;6222001;23;20239;-92
2022/03/11 09:19:44;;;;;;;3.33;1.57;;;3.40;99.90;;;;;;6226588;23;20176;-92
2022/03/11 09:22:36;;;;;;;2.97;1.43;;;3.30;99.90;;;;;;6222694;23;20226;-92
2022/03/11 09:25:08;;;;;;;2.07;1.50;;;3.30;99.90;;;;;;6224394;23;20176;-92
2022/03/11 09:27:40;;;;;;;1.97;1.43;;;3.30;99.90;;;;;;6222524;23;20183;-92
2022/03/11 09:30:12;;;;;;;2.73;1.60;;;3.30;99.90;;;;;;6224513;23;20607;-92
2022/03/11 09:32:45;;;;;;;2.57;1.80;;;3.30;99.90;;;;;;6221198;23;20191;-93
2022/03/11 09:35:17;;;;;;;2.73;1.60;;;3.30;99.90;;;;;;6226002;23;20211;-91
2022/03/11 09:37:48;;;;;;;4.33;1.60;;;3.30;99.90;;;;;;6195570;23;20191;-92
2022/03/11 09:40:19;;;;;;;3.43;1.60;;;3.30;99.90;;;;;;6224083;23;20168;-92
2022/03/11 09:42:51;;;;;;;2.20;1.60;;;3.30;99.90;;;;;;6220964;23;20223;-92
2022/03/11 09:45:23;;;;;;;3.13;1.80;;;3.30;99.90;;;;;;6224608;23;20187;-93
2022/03/11 09:47:56;;;;;;;1.93;1.70;;;3.30;99.90;;;;;;6192911;23;20192;-92
2022/03/11 09:50:31;;;;;;;2.13;1.63;;;3.40;99.90;;;;;;6220364;23;20275;-92
2022/03/11 09:53:05;;;;;;;1.73;1.47;;;3.30;99.90;;;;;;6221111;23;20203;-93
2022/03/11 09:55:36;;;;;;;1.87;1.50;;;3.30;99.90;;;;;;6220589;23;20196;-93
2022/03/11 09:58:07;;;;;;;1.70;1.30;;;3.30;99.90;;;;;;6236790;23;20176;-92
2022/03/11 10:00:40;;;;;;;4.23;1.70;;;3.40;99.90;;;;;;6215001;23;20183;-92
2022/03/11 10:03:13;;;;;;;2.00;1.57;;;3.40;99.90;;;;;;6241590;23;20172;-91
2022/03/11 10:05:49;;;;;;;2.07;1.50;;;3.40;99.90;;;;;;6237634;23;20279;-91
2022/03/11 10:08:32;;;;;;;1.80;1.40;;;3.40;99.90;;;;;;6235989;23;20172;-91
2022/03/11 10:11:25;;;;;;;2.60;1.70;;;3.40;99.90;;;;;;6223953;23;20164;-93
2022/03/11 10:14:06;;;;;;;2.23;1.67;;;3.50;99.90;;;;;;6183819;23;20263;-90
2022/03/11 10:16:38;;;;;;;2.67;1.70;;;3.50;99.90;;;;;;6190566;23;20211;-92
2022/03/11 10:19:14;;;;;;;2.13;1.43;;;3.60;99.90;;;;;;6189800;23;20181;-91
2022/03/11 10:21:47;;;;;;;1.20;1.07;;;3.60;99.90;;;;;;6190740;23;20165;-91
2022/03/11 10:24:20;;;;;;;2.90;1.73;;;3.60;99.90;;;;;;6190263;23;20260;-93
2022/03/11 10:26:52;;;;;;;1.80;1.13;;;3.70;99.90;;;;;;6216232;23;20216;-93
2022/03/11 10:29:24;;;;;;;2.17;1.43;;;3.70;99.90;;;;;;6221554;23;20176;-92
2022/03/11 10:31:58;;;;;;;1.57;1.10;;;3.70;99.90;;;;;;6195765;23;20169;-92
2022/03/11 10:34:33;;;;;;;2.50;1.20;;;3.70;99.90;;;;;;6222591;23;20223;-91
2022/03/11 10:37:06;;;;;;;1.13;0.90;;;3.70;99.90;;;;;;6236935;23;20249;-89
2022/03/11 10:39:40;;;;;;;3.13;1.20;;;3.70;99.90;;;;;;6233363;23;20172;-92
2022/03/11 10:42:19;;;;;;;4.90;1.23;;;3.70;99.90;;;;;;6221498;23;20226;-91
2022/03/11 10:44:58;;;;;;;2.27;1.37;;;3.80;99.90;;;;;;6221286;23;20169;-93
2022/03/11 10:47:31;;;;;;;3.10;1.20;;;3.70;99.90;;;;;;6223756;23;20208;-92
2022/03/11 10:50:07;;;;;;;4.00;1.40;;;3.70;99.90;;;;;;6224483;23;20255;-92
2022/03/11 10:52:44;;;;;;;2.13;1.43;;;3.70;99.90;;;;;;6228365;23;20183;-91
2022/03/11 10:55:23;;;;;;;4.07;1.50;;;3.70;99.90;;;;;;6224465;23;20223;-91
2022/03/11 10:57:56;;;;;;;1.50;1.27;;;3.70;99.90;;;;;;6220731;23;20220;-91
2022/03/11 11:00:29;;;;;;;2.80;1.50;;;3.70;99.90;;;;;;6221480;23;20211;-92
2022/03/11 11:03:01;;;;;;;2.00;1.70;;;3.70;99.90;;;;;;6224403;23;20195;-92
2022/03/11 11:05:35;;;;;;;3.10;1.27;;;3.70;99.90;;;;;;6225897;23;20198;-92
2022/03/11 11:08:07;;;;;;;2.40;1.30;;;3.70;99.90;;;;;;6241837;23;20175;-92
2022/03/11 11:10:41;;;;;;;2.93;1.80;;;3.70;99.90;;;;;;6242305;23;20176;-92
2022/03/11 11:13:12;;;;;;;4.53;1.83;;;3.70;99.90;;;;;;6236766;23;20169;-90
2022/03/11 11:15:43;;;;;;;2.53;1.70;;;3.70;99.90;;;;;;6239284;23;20160;-92
2022/03/11 11:18:16;;;;;;;3.27;1.83;;;3.70;99.90;;;;;;6209044;23;20211;-92
2022/03/11 11:20:55;;;;;;;2.87;1.87;;;3.80;99.90;;;;;;6223611;23;20168;-93
2022/03/11 11:23:27;;;;;;;3.30;1.80;;;3.70;99.90;;;;;;6198363;23;20447;-91
2022/03/11 11:25:59;;;;;;;2.03;1.60;;;3.70;99.90;;;;;;6221004;23;20235;-92
2022/03/11 11:28:32;;;;;;;4.27;1.83;;;3.70;99.90;;;;;;6224018;23;20199;-93
2022/03/11 11:31:05;;;;;;;3.43;1.90;;;3.80;99.90;;;;;;6223671;23;20215;-92
2022/03/11 11:33:36;;;;;;;3.87;1.90;;;3.90;99.90;;;;;;6226214;23;20549;-92
2022/03/11 11:36:09;;;;;;;2.40;1.50;;;3.90;99.90;;;;;;6222639;23;20204;-92
2022/03/11 11:38:42;;;;;;;2.77;1.70;;;3.90;99.90;;;;;;6219735;23;20230;-92
2022/03/11 11:41:27;;;;;;;4.17;1.90;;;3.90;99.90;;;;;;6222757;23;20169;-92
2022/03/11 11:44:00;;;;;;;3.00;2.00;;;3.80;99.90;;;;;;6221205;23;20176;-91
2022/03/11 11:46:32;;;;;;;2.87;1.90;;;3.80;99.90;;;;;;6238377;23;20188;-91
2022/03/11 11:49:06;;;;;;;2.97;1.63;;;3.80;99.90;;;;;;6219373;23;20180;-92
2022/03/11 11:52:04;;;;;;;3.23;1.80;;;3.80;99.90;;;;;;6197160;23;20187;-92
2022/03/11 11:54:43;;;;;;;3.87;2.10;;;3.80;99.90;;;;;;6222136;23;20169;-92
2022/03/11 11:57:29;;;;;;;3.37;1.87;;;3.80;99.90;;;;;;6222007;23;20669;-92
2022/03/11 12:00:00;;;;;;;2.17;1.77;;;3.80;99.90;;;;;;6218888;23;20200;-93
2022/03/11 12:02:38;;;;;;;4.77;1.50;;;3.80;99.90;;;;;;6222876;23;20191;-92
2022/03/11 12:05:42;;;;;;;2.43;1.73;;;3.80;99.90;;;;;;6232585;23;20157;-91
2022/03/11 12:08:48;;;;;;;2.13;1.83;;;3.80;99.90;;;;;;6235067;23;20223;-92
2022/03/11 12:11:42;;;;;;;2.93;1.90;;;3.80;99.90;;;;;;6212456;23;20260;-92
2022/03/11 12:14:13;;;;;;;2.87;1.83;;;3.80;99.90;;;;;;6239466;23;20184;-92
2022/03/11 12:17:05;;;;;;;2.77;1.53;;;3.80;99.90;;;;;;6238620;23;20267;-91
2022/03/11 12:19:44;;;;;;;3.27;1.90;;;3.80;99.90;;;;;;6226822;23;20199;-92
2022/03/11 12:22:33;;;;;;;2.87;1.80;;;3.80;99.90;;;;;;6219297;23;20204;-91
2022/03/11 12:25:08;;;;;;;2.43;1.23;;;3.80;99.90;;;;;;6219853;23;20180;-92
2022/03/11 12:27:58;;;;;;;2.20;1.63;;;3.80;99.90;;;;;;6219189;23;20230;-91
2022/03/11 12:30:31;;;;;;;3.93;1.57;;;3.80;99.90;;;;;;6219876;23;20169;-91
2022/03/11 12:33:05;;;;;;;2.13;1.80;;;3.80;99.90;;;;;;6218810;23;20183;-91
2022/03/11 12:35:36;;;;;;;2.83;1.90;;;3.80;99.90;;;;;;6219621;23;20168;-92
2022/03/11 12:38:13;;;;;;;4.10;1.50;;;3.80;99.90;;;;;;6218513;23;20212;-92
2022/03/11 12:40:48;;;;;;;2.97;1.87;;;3.80;99.90;;;;;;6219110;23;20191;-91
2022/03/11 12:43:21;;;;;;;4.67;1.70;;;3.90;99.90;;;;;;6220406;23;20226;-91
2022/03/11 12:45:53;;;;;;;3.53;2.13;;;3.80;99.90;;;;;;6219266;23;20176;-93
2022/03/11 12:48:26;;;;;;;3.83;2.10;;;3.80;99.90;;;;;;6221842;23;20219;-92
2022/03/11 12:50:58;;;;;;;2.60;1.70;;;3.70;99.90;;;;;;6220679;23;20173;-92
2022/03/11 12:53:29;;;;;;;2.63;1.80;;;3.70;99.90;;;;;;6225227;23;20168;-91
2022/03/11 12:56:02;;;;;;;3.33;1.60;;;3.70;99.90;;;;;;6220526;23;20180;-92
2022/03/11 12:58:36;;;;;;;2.43;1.73;;;3.70;99.90;;;;;;6195327;23;20852;-91
2022/03/11 13:01:10;;;;;;;3.97;2.27;;;3.70;99.90;;;;;;6220566;23;20165;-91
2022/03/11 13:03:43;;;;;;;2.53;1.53;;;3.70;99.90;;;;;;6220751;23;20513;-91
2022/03/11 13:06:15;;;;;;;2.80;1.93;;;3.70;99.90;;;;;;6220539;23;20183;-92
2022/03/11 13:08:47;;;;;;;3.43;1.77;;;3.70;99.90;;;;;;6219167;23;20172;-91
2022/03/11 13:11:20;;;;;;;4.10;1.90;;;3.70;99.90;;;;;;6219661;23;20181;-92
2022/03/11 13:13:52;;;;;;;2.20;1.90;;;3.70;99.90;;;;;;6218681;23;20176;-91
2022/03/11 13:16:24;;;;;;;4.47;1.90;;;3.70;99.90;;;;;;6219885;23;20232;-92
2022/03/11 13:18:55;;;;;;;3.87;1.73;;;3.70;99.90;;;;;;6218214;23;20251;-91
2022/03/11 13:21:26;;;;;;;3.43;1.63;;;3.70;99.90;;;;;;6222706;23;20176;-90
2022/03/11 13:23:58;;;;;;;3.50;1.67;;;3.70;99.90;;;;;;6242223;23;20164;-91
2022/03/11 13:26:30;;;;;;;2.20;1.63;;;3.70;99.90;;;;;;6241764;23;20212;-92
2022/03/11 13:29:03;;;;;;;2.87;1.60;;;3.70;99.90;;;;;;6236815;23;20172;-92
2022/03/11 13:31:36;;;;;;;2.27;1.30;;;3.70;99.90;;;;;;6222736;23;20188;-92
2022/03/11 13:34:10;;;;;;;3.97;1.70;;;3.70;99.90;;;;;;6220904;23;20176;-92
2022/03/11 13:36:42;;;;;;;3.03;1.60;;;3.60;99.90;;;;;;6221682;23;20176;-92
2022/03/11 13:39:15;;;;;;;2.30;1.60;;;3.60;99.90;;;;;;6221070;23;20242;-92
2022/03/11 13:41:49;;;;;;;1.60;1.40;;;3.60;99.90;;;;;;6221412;23;20530;-92
2022/03/11 13:44:23;;;;;;;1.97;1.40;;;3.60;99.90;;;;;;6221378;23;20184;-92
2022/03/11 13:46:56;;;;;;;2.23;1.43;;;3.50;99.90;;;;;;6220879;23;20254;-93
2022/03/11 13:49:40;;;;;;;1.60;1.20;;;3.50;99.90;;;;;;6221501;23;20512;-91